Terminal Aerodrome Forecast
Issued by NWS

Home | Current Version | Previous Version | Text Only | Print | Product List | Glossary On
Versions: 1 2 3 4 5 6 7 8 9 10 11 12 13 14 15 16 17 18 19 20 21 22 23 24 25
000
FTUS46 KEKA 270532
TAFCEC
TAF
KCEC 270532Z 2706/2806 07007KT P6SM SCT250
     FM271600 18005KT P6SM FEW100 BKN250
     FM272200 23006KT P6SM FEW050 SCT100 OVC250 PROB30 2801/2805
      P6SM -RA BKN050=

USA.gov is the U.S. government's official web portal to all federal, state and local government web resources and services.